August 16, 2022

Time Code Weather Temp. Visibility Ceiling Wind METAR/SPECI
10:20
V
24 °C 10 km+ - 190° 190° 4 kt METAR ETWM 160820Z 19004KT 9999 FEW100 24/16 Q1007 BLU+
09:20
V
23 °C 10 km+ - 170° 170° 5 kt METAR ETWM 160720Z 17005KT 9999 FEW060 23/16 Q1006 BLU+
08:20
V
20 °C 10 km+ - 190° 190° 3 kt METAR ETWM 160620Z 19003KT 9999 FEW060 20/17 Q1006 BLU+
07:20
V
17 °C 10 km+ - 180° 180° 2 kt METAR ETWM 160520Z 18002KT 9999 MIFG FEW060 17/17 Q1006 BLU+
06:20
V
18 °C 10 km+ 14,000 ft 190° 190° 2 kt METAR ETWM 160420Z 19002KT 9999 MIFG FEW060 SCT100 BKN140 18/17 Q1006 BLU
05:20
L
18 °C 0 m - 210° 210° 1 kt METAR ETWM 160320Z AUTO 21001KT //// // ////// 18/18 Q1005 ///
04:20
L
18 °C 0 m - 130° 130° 1 kt METAR ETWM 160220Z AUTO 13001KT //// // ////// 18/18 Q1006 ///
03:20
L
19 °C 0 m - Var Var 1 kt METAR ETWM 160120Z AUTO VRB01KT //// // ////// 19/18 Q1006 ///
02:20
L
19 °C 0 m - 360° 360° 1 kt METAR ETWM 160020Z AUTO 36001KT //// // ////// 19/18 Q1005 ///
01:20
L
19 °C 0 m - 190° 190° 1 kt METAR ETWM 152320Z AUTO 19001KT //// // ////// 19/19 Q1005 ///
00:20
L
20 °C 0 m - Var 000° 0 kt METAR ETWM 152220Z AUTO 00000KT //// // ////// 20/19 Q1005 ///

August 15, 2022

Time Code Weather Temp. Visibility Ceiling Wind METAR/SPECI
23:20
L
20 °C 0 m - 220° 220° 2 kt METAR ETWM 152120Z AUTO 22002KT //// // ////// 20/19 Q1005 ///
22:20
L
20 °C 0 m - 300° 300° 1 kt METAR ETWM 152020Z AUTO 30001KT //// // ////// 20/18 Q1005 ///
21:20
L
22 °C 0 m - 360° 360° 6 kt METAR ETWM 151920Z AUTO 36006KT //// // ////// 22/18 Q1004 ///
20:20
L
24 °C 0 m - 200° 200° 4 kt METAR ETWM 151820Z AUTO 20004KT //// // ////// 24/16 Q1004 ///
19:20
L
26 °C 0 m - Var Var 3 kt METAR ETWM 151720Z AUTO VRB03KT //// // ////// 26/15 Q1003 ///
18:20
L
27 °C 0 m - 250° 250° 7 kt METAR ETWM 151620Z AUTO 25007KT //// // ////// 27/15 Q1003 ///
17:20
L
26 °C 0 m - 210° 210° 4 kt METAR ETWM 151520Z AUTO 21004KT //// // ////// 26/16 Q1003 ///
16:20
L
26 °C 0 m - 180° 180° 8 kt METAR ETWM 151420Z AUTO 18008KT //// // ////// 26/16 Q1003 ///
15:20
L
27 °C 0 m - 210° 210° 10 kt METAR ETWM 151320Z AUTO 21010KT //// // ////// 27/16 Q1003 ///
14:20
V
26 °C 10 km+ 15,000 ft 180° 180° 4 kt METAR ETWM 151220Z 18004KT 9999 FEW040 BKN150 BKN220 26/16 Q1003 BLU
13:20
V
26 °C 10 km+ 16,000 ft 250° 250° 6 kt METAR ETWM 151120Z 25006KT 9999 FEW040 BKN160 BKN230 26/16 Q1003 BLU
12:20
V
28 °C 10 km+ 24,000 ft 200° 200° 4 kt METAR ETWM 151020Z 20004KT 9999 FEW040 SCT170 BKN240 28/15 Q1003 BLU+
11:20
V
25 °C 10 km+ 22,000 ft 170° 170° 5 kt METAR ETWM 150920Z 17005KT 9999 FEW040 SCT140 BKN220 25/14 Q1003 BLU+
10:20
V
27 °C 10 km+ 20,000 ft 130° 130° 5 kt METAR ETWM 150820Z 13005KT 9999 FEW040 SCT100 BKN200 27/14 Q1002 BLU+
09:20
V
24 °C 10 km+ 10,000 ft 120° 120° 4 kt METAR ETWM 150720Z 12004KT 9999 FEW040TCU BKN100 24/15 Q1002 BLU
08:20
V
22 °C 10 km+ 16,000 ft Var Var 2 kt METAR ETWM 150620Z VRB02KT 9999 FEW040TCU SCT120 BKN160 22/16 Q1002 BLU
07:20
V
19 °C 10 km+ 13,000 ft Var 000° 0 kt METAR ETWM 150520Z 00000KT 9999 FEW040 BKN130 19/16 Q1002 BLU
06:20
V
18 °C 10 km+ 13,000 ft Var 000° 0 kt METAR ETWM 150420Z 00000KT 9999 FEW080 BKN130 18/15 Q1002 BLU
05:20
L
17 °C 0 m - 010° 010° 1 kt METAR ETWM 150320Z AUTO 01001KT //// // ////// 17/15 Q1003 ///
04:20
L
19 °C 0 m - 020° 020° 1 kt METAR ETWM 150220Z AUTO 02001KT //// // ////// 19/16 Q1003 ///
03:20
L
21 °C 0 m - 350° 350° 2 kt METAR ETWM 150120Z AUTO 35002KT //// // ////// 21/16 Q1003 ///
02:20
L
19 °C 0 m - 330° 330° 1 kt METAR ETWM 150020Z AUTO 33001KT //// // ////// 19/14 Q1004 ///
01:20
L
20 °C 0 m - Var Var 1 kt METAR ETWM 142320Z AUTO VRB01KT //// // ////// 20/15 Q1004 ///
00:20
L
20 °C 0 m - 010° 010° 1 kt METAR ETWM 142220Z AUTO 01001KT //// // ////// 20/15 Q1004 ///

August 14, 2022

Time Code Weather Temp. Visibility Ceiling Wind METAR/SPECI
23:20
L
21 °C 0 m - 010° 010° 2 kt METAR ETWM 142120Z AUTO 01002KT //// // ////// 21/15 Q1005 ///
22:20
L
23 °C 0 m - 020° 020° 1 kt METAR ETWM 142020Z AUTO 02001KT //// // ////// 23/15 Q1005 ///
21:20
L
24 °C 0 m - Var 000° 0 kt METAR ETWM 141920Z AUTO 00000KT //// // ////// 24/15 Q1005 ///
20:20
L
28 °C 0 m - 080° 080° 3 kt METAR ETWM 141820Z AUTO 08003KT //// // ////// 28/14 Q1005 ///
19:20
L
30 °C 0 m - 100° 100° 6 kt METAR ETWM 141720Z AUTO 10006KT //// // ////// 30/13 Q1005 ///
18:20
L
30 °C 0 m - 100° 100° 6 kt METAR ETWM 141620Z AUTO 10006KT //// // ////// 30/13 Q1006 ///
17:20
L
31 °C 0 m - 110° 110° 7 kt METAR ETWM 141520Z AUTO 11007KT //// // ////// 31/13 Q1006 ///
16:20
L
30 °C 0 m - 100° 100° 7 kt METAR ETWM 141420Z AUTO 10007KT //// // ////// 30/14 Q1007 ///
15:20
L
30 °C 0 m - 100° 100° 9 - 22 kt METAR ETWM 141320Z AUTO 10009G22KT //// // ////// 30/14 Q1008 ///
14:20
L
30 °C 0 m - 110° 110° 9 kt METAR ETWM 141220Z AUTO 11009KT //// // ////// 30/14 Q1008 ///
13:20
L
29 °C 0 m - 100° 100° 8 kt METAR ETWM 141120Z AUTO 10008KT //// // ////// 29/15 Q1009 ///
12:20
L
28 °C 0 m - 080° 080° 11 kt METAR ETWM 141020Z AUTO 08011KT //// // ////// 28/15 Q1010 ///
11:20
L
27 °C 0 m - 080° 080° 9 kt METAR ETWM 140920Z AUTO 08009KT //// // ////// 27/15 Q1010 ///
Older data

We and third parties follow your internet behavior on our website with cookies. If you continue, we assume you agree with our cookie policy. Learn more